Time;durP1;ratioP1;P1;durP2;ratioP2;P2;SDS_P1;SDS_P2;PMS_P1;PMS_P2;Temp;Humidity;BMP_temperature;BMP_pressure;BME280_temperature;BME280_humidity;BME280_pressure;Samples;Min_cycle;Max_cycle;Signal;HPM_P1;HPM_P2
2023/01/02 00:01:15;;;;;;;8.02;3.33;;;;;;;15.98;58.54;99801.81;12241170;19;20351;-80
2023/01/02 00:05:17;;;;;;;6.35;2.33;;;;;;;15.93;58.75;99799.88;12265257;19;19998;-80
2023/01/02 00:09:18;;;;;;;7.43;2.83;;;;;;;15.87;58.81;99793.50;12252992;19;20022;-82
2023/01/02 00:13:20;;;;;;;5.40;2.70;;;;;;;15.87;58.95;99787.94;12189631;19;20016;-81
2023/01/02 00:17:22;;;;;;;11.52;2.97;;;;;;;15.83;59.01;99792.44;12214057;19;20003;-80
2023/01/02 00:21:23;;;;;;;7.90;2.42;;;;;;;15.80;59.18;99778.28;12209940;19;20003;-81
2023/01/02 00:25:25;;;;;;;8.35;2.95;;;;;;;15.75;59.10;99784.69;12188687;19;20013;-82
2023/01/02 00:29:26;;;;;;;5.95;2.80;;;;;;;15.69;59.42;99777.47;12207668;19;20011;-82
2023/01/02 00:33:28;;;;;;;7.88;2.72;;;;;;;15.64;59.45;99767.19;12210508;19;20082;-83
2023/01/02 00:37:30;;;;;;;8.43;2.70;;;;;;;15.61;59.28;99764.16;12185006;19;20014;-81
2023/01/02 00:41:31;;;;;;;7.88;2.60;;;;;;;15.55;59.59;99762.50;12204310;19;19999;-81
2023/01/02 00:45:33;;;;;;;7.15;2.70;;;;;;;15.49;59.88;99754.19;12221607;19;20050;-80
2023/01/02 00:49:34;;;;;;;6.55;2.50;;;;;;;15.39;59.87;99762.56;12199155;19;20111;-82
2023/01/02 00:53:36;;;;;;;8.85;2.50;;;;;;;15.35;60.11;99767.03;12224476;19;20007;-81
2023/01/02 00:57:37;;;;;;;6.50;2.60;;;;;;;15.26;60.10;99755.69;12208219;19;20002;-82
2023/01/02 01:01:39;;;;;;;8.00;2.65;;;;;;;15.28;60.09;99752.59;12178217;19;20010;-82
2023/01/02 01:05:41;;;;;;;7.93;2.57;;;;;;;15.31;60.11;99754.81;12206291;19;20496;-82
2023/01/02 01:09:43;;;;;;;7.32;2.33;;;;;;;15.32;59.94;99748.16;12204175;19;20560;-81
2023/01/02 01:13:44;;;;;;;9.48;3.20;;;;;;;15.34;59.70;99748.69;12196919;19;20119;-81
2023/01/02 01:17:46;;;;;;;7.32;2.42;;;;;;;15.39;59.33;99750.63;12212804;19;20030;-82
2023/01/02 01:21:47;;;;;;;9.43;2.38;;;;;;;15.49;58.89;99743.09;12200841;19;20038;-82
2023/01/02 01:25:49;;;;;;;8.20;2.20;;;;;;;15.60;57.41;99746.66;12177664;19;20014;-81
2023/01/02 01:29:51;;;;;;;8.48;2.13;;;;;;;15.75;56.79;99748.56;12188686;19;20006;-80
2023/01/02 01:33:53;;;;;;;8.90;2.20;;;;;;;15.84;56.55;99738.50;12195569;19;20046;-82
2023/01/02 01:37:54;;;;;;;4.13;2.00;;;;;;;15.80;56.54;99731.88;12175327;19;20078;-81
2023/01/02 01:41:59;;;;;;;8.52;2.00;;;;;;;15.86;55.47;99736.28;12193623;19;21175;-82
2023/01/02 01:46:02;;;;;;;8.18;2.38;;;;;;;15.97;54.84;99737.03;12194722;19;20014;-82
2023/01/02 01:50:09;;;;;;;6.22;2.42;;;;;;;16.05;53.72;99741.16;12177336;19;20039;-82
2023/01/02 01:54:15;;;;;;;8.43;2.70;;;;;;;16.11;53.57;99731.69;12193347;19;20006;-82
2023/01/02 01:58:21;;;;;;;9.63;2.30;;;;;;;16.12;53.41;99730.53;12173305;19;20031;-81
2023/01/02 02:02:27;;;;;;;7.22;2.10;;;;;;;16.14;53.37;99736.66;12196114;19;20010;-81
2023/01/02 02:06:28;;;;;;;7.15;2.38;;;;;;;16.19;52.93;99731.06;12200249;19;20007;-81
2023/01/02 02:10:30;;;;;;;5.80;2.30;;;;;;;16.20;53.23;99743.00;12175128;19;20476;-82
2023/01/02 02:14:33;;;;;;;5.38;2.25;;;;;;;16.21;52.91;99731.63;12195118;19;20093;-82
2023/01/02 02:18:37;;;;;;;;;;;;;;;16.17;52.41;99730.53;12194021;19;20017;-80
2023/01/02 02:22:51;;;;;;;8.90;2.53;;;;;;;16.19;51.88;99719.94;12162268;19;20313;-80
2023/01/02 02:27:03;;;;;;;9.48;2.45;;;;;;;16.24;51.18;99711.59;12191225;19;20106;-80
2023/01/02 02:31:14;;;;;;;4.07;1.83;;;;;;;16.32;51.06;99707.34;12174005;19;20003;-82
2023/01/02 02:35:24;;;;;;;7.72;2.30;;;;;;;16.39;50.92;99707.84;12193882;19;20024;-80
2023/01/02 02:39:58;;;;;;;7.25;2.78;;;;;;;16.39;51.14;99707.84;12194729;19;20634;-81
2023/01/02 02:44:39;;;;;;;8.65;2.70;;;;;;;16.36;51.04;99708.44;12168831;19;20006;-81
2023/01/02 02:49:14;;;;;;;8.63;2.30;;;;;;;16.34;51.01;99697.59;12191596;19;20043;-80
2023/01/02 02:53:29;;;;;;;7.50;2.58;;;;;;;16.31;51.38;99694.56;12170323;19;20034;-81
2023/01/02 02:57:33;;;;;;;8.73;2.20;;;;;;;16.25;51.66;99691.00;12192448;19;20014;-81
2023/01/02 03:01:35;;;;;;;8.98;2.38;;;;;;;16.23;51.53;99687.66;12169950;19;20011;-81
2023/01/02 03:05:42;;;;;;;6.07;2.00;;;;;;;16.14;51.73;99690.22;12193104;19;19998;-81
2023/01/02 03:10:01;;;;;;;5.28;2.00;;;;;;;16.11;52.03;99685.25;12194713;19;20006;-81
2023/01/02 03:14:12;;;;;;;8.45;2.42;;;;;;;16.07;52.25;99694.47;12168900;19;20050;-82
2023/01/02 03:18:39;;;;;;;6.40;2.35;;;;;;;16.03;51.75;99674.78;12194738;19;20500;-82
2023/01/02 03:22:47;;;;;;;4.05;2.03;;;;;;;16.06;51.73;99671.41;12170840;19;20017;-81
2023/01/02 03:26:56;;;;;;;5.72;2.28;;;;;;;16.09;51.43;99664.41;12188811;19;20073;-81
2023/01/02 03:31:01;;;;;;;5.93;1.85;;;;;;;16.17;51.15;99677.69;12190909;19;20011;-80
2023/01/02 03:35:09;;;;;;;6.20;1.90;;;;;;;16.14;51.25;99690.22;12169466;19;20368;-82
2023/01/02 03:39:17;;;;;;;7.15;2.22;;;;;;;16.14;51.20;99686.63;12189746;19;20033;-80
2023/01/02 03:43:28;;;;;;;4.45;1.85;;;;;;;16.12;51.11;99686.06;12165958;19;20035;-81
2023/01/02 03:47:37;;;;;;;3.90;2.25;;;;;;;16.08;51.27;99690.56;12190644;19;20461;-81
2023/01/02 03:51:40;;;;;;;6.55;2.03;;;;;;;16.00;51.44;99694.78;12188319;19;20039;-80
2023/01/02 03:56:05;;;;;;;9.45;2.20;;;;;;;15.93;52.08;99703.44;12169669;19;20014;-80
2023/01/02 04:00:11;;;;;;;6.68;2.30;;;;;;;15.86;51.92;99708.50;12187118;19;20007;-83
2023/01/02 04:04:58;;;;;;;4.30;1.90;;;;;;;15.87;51.83;99703.78;12169718;19;20381;-80
2023/01/02 04:09:11;;;;;;;5.43;2.00;;;;;;;15.89;52.31;99721.81;12205967;19;20010;-80
2023/01/02 04:13:20;;;;;;;5.13;1.93;;;;;;;15.81;52.20;99711.31;12171707;19;20010;-82
2023/01/02 04:17:24;;;;;;;9.55;2.40;;;;;;;15.77;52.18;99724.13;12191729;19;20002;-81
2023/01/02 04:21:30;;;;;;;5.78;2.20;;;;;;;15.69;52.84;99706.09;12190498;19;20397;-81
2023/01/02 04:25:40;;;;;;;5.95;2.50;;;;;;;15.63;53.15;99701.66;12168267;19;20006;-81
2023/01/02 04:29:41;;;;;;;8.88;2.45;;;;;;;15.56;53.32;99700.31;12186825;19;20046;-79
2023/01/02 04:33:49;;;;;;;7.28;2.17;;;;;;;15.46;53.58;99707.56;12189939;19;20006;-80
2023/01/02 04:37:50;;;;;;;8.13;2.10;;;;;;;15.42;54.11;99727.84;12168399;19;20007;-80
2023/01/02 04:41:52;;;;;;;7.43;2.15;;;;;;;15.38;54.31;99732.34;12187525;19;20042;-80
2023/01/02 04:45:55;;;;;;;;;;;;;;;15.33;54.47;99735.94;12197979;19;20007;-79
2023/01/02 04:49:56;;;;;;;4.65;2.10;;;;;;;15.27;54.83;99723.19;12222473;19;19922;-79
2023/01/02 04:53:58;;;;;;;7.13;2.80;;;;;;;15.23;55.26;99719.34;12250574;19;20756;-81
2023/01/02 04:57:59;;;;;;;5.15;2.10;;;;;;;15.14;55.17;99721.00;12208408;19;20124;-81
2023/01/02 05:02:01;;;;;;;7.72;2.38;;;;;;;15.13;55.14;99733.22;12193077;19;20070;-81
2023/01/02 05:06:03;;;;;;;5.13;2.03;;;;;;;15.17;55.14;99723.22;12205994;19;20010;-79
2023/01/02 05:10:05;;;;;;;9.25;2.17;;;;;;;15.16;54.70;99707.69;12182673;19;20003;-80
2023/01/02 05:14:07;;;;;;;6.50;2.33;;;;;;;15.15;54.90;99711.59;12203141;19;21393;-79
2023/01/02 05:18:09;;;;;;;10.57;3.17;;;;;;;15.13;54.90;99727.69;12202044;19;20291;-80
2023/01/02 05:26:31;;;;;;;6.00;2.60;;;;;;;15.11;54.83;99741.84;12201141;19;20082;-81
2023/01/02 05:30:33;;;;;;;6.47;2.22;;;;;;;15.09;54.73;99749.63;12198816;19;20585;-81
2023/01/02 05:34:35;;;;;;;6.53;2.22;;;;;;;15.08;55.00;99756.28;12176561;19;20050;-81
2023/01/02 05:38:38;;;;;;;7.30;2.90;;;;;;;15.02;54.97;99757.38;12199268;19;20031;-81
2023/01/02 05:42:40;;;;;;;9.45;2.30;;;;;;;15.01;54.92;99764.88;12201470;19;20062;-78
2023/01/02 05:46:41;;;;;;;7.40;2.88;;;;;;;14.99;55.12;99761.59;12181923;19;20031;-79
2023/01/02 05:50:43;;;;;;;7.65;2.10;;;;;;;14.98;55.14;99775.72;12202811;19;20019;-78
2023/01/02 05:54:45;;;;;;;11.50;2.40;;;;;;;14.95;55.46;99773.50;12200082;19;20043;-79
2023/01/02 05:58:48;;;;;;;6.50;2.35;;;;;;;14.86;56.40;99764.91;12176195;19;20013;-78
2023/01/02 06:02:50;;;;;;;5.55;2.50;;;;;;;14.78;56.94;99779.34;12194871;19;20010;-78
2023/01/02 06:06:52;;;;;;;8.18;2.80;;;;;;;14.65;57.68;99769.66;12198035;19;20400;-80
2023/01/02 06:10:53;;;;;;;5.60;2.10;;;;;;;14.56;57.92;99783.22;12171621;19;20006;-78
2023/01/02 06:14:55;;;;;;;10.15;2.90;;;;;;;14.50;58.48;99777.94;12198633;19;20021;-79
2023/01/02 06:18:56;;;;;;;10.68;2.20;;;;;;;14.43;58.88;99782.94;12209184;19;20401;-81
2023/01/02 06:22:58;;;;;;;7.80;3.25;;;;;;;14.36;59.36;99791.50;12228000;19;20007;-78
2023/01/02 06:27:00;;;;;;;6.43;2.38;;;;;;;14.34;59.73;99802.06;12247202;19;19994;-78
2023/01/02 06:31:05;;;;;;;5.45;2.42;;;;;;;14.34;59.67;99797.34;12206810;19;20031;-79
2023/01/02 06:35:07;;;;;;;6.18;2.22;;;;;;;14.36;59.02;99795.09;12178777;19;20022;-79
2023/01/02 06:39:08;;;;;;;4.65;2.22;;;;;;;14.39;58.89;99795.66;12195331;19;20006;-78
2023/01/02 06:43:10;;;;;;;7.57;2.53;;;;;;;14.43;58.45;99800.41;12176331;19;20010;-79
2023/01/02 06:47:11;;;;;;;7.03;2.10;;;;;;;14.50;57.42;99800.94;12198293;19;20002;-80
2023/01/02 06:51:15;;;;;;;7.68;2.30;;;;;;;14.63;57.00;99812.63;12197797;19;20046;-79
2023/01/02 06:55:17;;;;;;;8.77;1.77;;;;;;;14.67;55.67;99800.72;12177395;19;20026;-80
2023/01/02 06:59:19;;;;;;;9.88;2.20;;;;;;;14.79;54.94;99811.53;12196686;19;21771;-80
2023/01/02 07:03:20;;;;;;;11.95;2.72;;;;;;;14.95;54.28;99806.81;12197710;19;20007;-80
2023/01/02 07:07:22;;;;;;;14.88;2.92;;;;;;;15.04;52.90;99811.50;12165260;19;20011;-82
2023/01/02 07:11:24;;;;;;;13.95;3.45;;;;;;;15.18;52.33;99810.94;12179413;19;20014;-78
2023/01/02 07:15:26;;;;;;;8.63;2.20;;;;;;;15.23;51.49;99799.84;12195317;19;20091;-81
2023/01/02 07:19:28;;;;;;;7.93;2.08;;;;;;;15.28;50.52;99805.34;12156090;19;20010;-82
2023/01/02 07:23:29;;;;;;;7.90;2.50;;;;;;;15.39;50.22;99815.31;12192720;19;20025;-81
2023/01/02 07:27:32;;;;;;;8.70;2.20;;;;;;;15.51;50.06;99812.25;12195826;19;20006;-82
2023/01/02 07:31:34;;;;;;;9.55;2.17;;;;;;;15.55;49.79;99821.66;12174121;19;20141;-80
2023/01/02 07:35:36;;;;;;;9.15;2.33;;;;;;;15.60;49.66;99818.03;12199581;19;20011;-81
2023/01/02 07:39:37;;;;;;;12.23;2.80;;;;;;;15.61;48.74;99814.97;12196365;19;20027;-81
2023/01/02 07:43:39;;;;;;;9.80;2.28;;;;;;;15.67;49.07;99807.44;12180617;19;20026;-81
2023/01/02 07:47:41;;;;;;;7.90;2.40;;;;;;;15.67;48.29;99813.00;12197918;19;20014;-81
2023/01/02 07:51:43;;;;;;;9.05;2.05;;;;;;;15.70;48.29;99827.22;12197669;19;20330;-79
2023/01/02 07:55:52;;;;;;;13.35;3.03;;;;;;;15.76;47.77;99827.19;12172758;19;20000;-81
2023/01/02 07:59:54;;;;;;;9.02;2.30;;;;;;;15.76;47.16;99825.22;12195489;19;20006;-79
2023/01/02 08:03:56;;;;;;;8.25;2.03;;;;;;;15.85;47.11;99831.03;12195850;19;20042;-80
2023/01/02 08:07:57;;;;;;;8.32;2.03;;;;;;;15.92;46.83;99837.13;12169950;19;20047;-79
2023/01/02 08:11:59;;;;;;;7.53;2.78;;;;;;;15.98;46.86;99829.59;12198636;19;20006;-80
2023/01/02 08:16:07;;;;;;;12.73;2.38;;;;;;;15.97;46.99;99827.91;12197154;19;20002;-79
2023/01/02 08:20:09;;;;;;;12.98;2.42;;;;;;;16.01;46.83;99831.81;12184189;19;20093;-79
2023/01/02 08:24:11;;;;;;;7.35;2.55;;;;;;;16.04;46.60;99814.56;12199339;19;20002;-80
2023/01/02 08:28:13;;;;;;;11.25;2.92;;;;;;;16.14;46.77;99829.22;12208550;19;20811;-80
2023/01/02 08:32:14;;;;;;;9.07;2.30;;;;;;;16.14;46.67;99834.78;12185444;19;20042;-79
2023/01/02 08:36:18;;;;;;;12.23;2.33;;;;;;;16.11;46.38;99853.97;12205457;19;20071;-79
2023/01/02 08:40:20;;;;;;;8.95;2.78;;;;;;;16.10;46.42;99869.84;12208314;19;20013;-80
2023/01/02 08:44:22;;;;;;;9.00;2.45;;;;;;;16.10;46.53;99878.19;12184595;19;20360;-79
2023/01/02 08:48:24;;;;;;;10.73;2.00;;;;;;;16.11;46.66;99879.81;12208377;19;20030;-80
2023/01/02 08:52:25;;;;;;;12.20;2.45;;;;;;;16.07;46.43;99877.91;12216845;19;20019;-80
2023/01/02 08:56:30;;;;;;;8.45;2.33;;;;;;;16.12;46.52;99886.22;12187216;19;20033;-79
2023/01/02 09:00:31;;;;;;;11.25;2.60;;;;;;;16.16;46.71;99876.22;12210415;19;20081;-79
2023/01/02 09:04:33;;;;;;;6.82;2.40;;;;;;;16.15;46.76;99885.66;12209480;19;20014;-80
2023/01/02 09:08:34;;;;;;;8.32;2.83;;;;;;;16.13;46.84;99894.28;12185566;19;20680;-78
2023/01/02 09:12:36;;;;;;;9.07;3.65;;;;;;;16.02;46.94;99901.00;12213062;19;20027;-79
2023/01/02 09:16:38;;;;;;;11.63;2.37;;;;;;;15.92;47.18;99910.22;12218155;19;20010;-79
2023/01/02 09:20:40;;;;;;;12.05;2.90;;;;;;;15.94;47.46;99913.53;12232150;19;20006;-80
2023/01/02 09:24:43;;;;;;;9.35;2.53;;;;;;;15.93;47.66;99922.97;12255300;19;19990;-80
2023/01/02 09:28:45;;;;;;;8.47;2.20;;;;;;;15.92;47.85;99921.31;12233039;19;20014;-79
2023/01/02 09:32:49;;;;;;;8.87;2.23;;;;;;;15.82;47.83;99923.28;12215714;19;20020;-80
2023/01/02 09:36:51;;;;;;;11.23;2.42;;;;;;;15.84;48.01;99937.75;12212266;19;20011;-80
2023/01/02 09:40:54;;;;;;;13.00;2.50;;;;;;;15.90;48.22;99931.06;12206909;19;20007;-78
2023/01/02 09:44:59;;;;;;;8.65;2.30;;;;;;;15.99;48.41;99937.69;12241686;19;20055;-79
2023/01/02 09:49:15;;;;;;;11.93;2.65;;;;;;;15.99;48.22;99929.34;12269577;19;20039;-79
2023/01/02 09:53:17;;;;;;;7.80;2.10;;;;;;;16.11;48.46;99934.59;12203255;19;20030;-79
2023/01/02 09:57:28;;;;;;;9.15;3.00;;;;;;;16.15;48.46;99961.56;12211133;19;20026;-80
2023/01/02 10:01:58;;;;;;;9.23;2.55;;;;;;;16.32;48.44;99949.25;12209178;19;20048;-80
2023/01/02 10:06:08;;;;;;;8.45;2.75;;;;;;;16.48;48.30;99950.84;12194335;19;20009;-82
2023/01/02 10:10:36;;;;;;;8.35;2.03;;;;;;;16.63;47.65;99944.38;12214111;19;20007;-80
2023/01/02 10:14:58;;;;;;;8.13;2.10;;;;;;;16.63;47.99;99961.06;12189557;19;20006;-79
2023/01/02 10:19:09;;;;;;;6.22;2.05;;;;;;;16.57;48.73;99959.44;12208926;19;20022;-81
2023/01/02 10:23:17;;;;;;;9.07;1.95;;;;;;;16.53;48.95;99958.31;12189020;19;20030;-80
2023/01/02 10:27:24;;;;;;;9.88;2.28;;;;;;;16.47;49.10;99967.81;12203533;19;20002;-79
2023/01/02 10:31:33;;;;;;;7.63;2.38;;;;;;;16.38;49.97;99970.34;12205254;19;20345;-80
2023/01/02 10:35:41;;;;;;;13.43;2.67;;;;;;;16.29;51.67;99970.09;12190794;19;20371;-81
2023/01/02 10:39:45;;;;;;;11.48;2.40;;;;;;;16.15;54.42;99980.16;12204914;19;20073;-79
2023/01/02 10:43:53;;;;;;;14.13;2.67;;;;;;;15.85;57.76;99981.91;12208207;19;20492;-80
2023/01/02 10:47:54;;;;;;;6.75;2.10;;;;;;;15.53;62.25;99984.13;12181382;19;20034;-82
2023/01/02 10:52:09;;;;;;;9.43;2.40;;;;;;;15.25;64.64;99987.19;12203467;19;20006;-82
2023/01/02 10:56:18;;;;;;;8.20;2.55;;;;;;;14.98;65.11;100001.31;12185698;19;20457;-82
2023/01/02 11:00:19;;;;;;;7.65;2.30;;;;;;;14.65;70.80;99977.66;12198480;19;20031;-84
2023/01/02 11:04:41;;;;;;;6.85;2.40;;;;;;;14.49;71.16;99984.22;12203374;19;20039;-82
2023/01/02 11:08:42;;;;;;;10.50;3.33;;;;;;;14.35;73.67;99981.13;12179852;19;19998;-81
2023/01/02 11:12:47;;;;;;;9.80;2.50;;;;;;;14.28;75.02;99992.47;12202299;19;20074;-82
2023/01/02 11:16:56;;;;;;;12.73;2.45;;;;;;;14.21;76.65;99988.25;12181815;19;20023;-81
2023/01/02 11:21:04;;;;;;;11.20;2.35;;;;;;;14.13;78.02;99997.94;12201618;19;20038;-82
2023/01/02 11:25:22;;;;;;;7.35;2.20;;;;;;;13.95;80.42;100001.97;12200131;19;20010;-82
2023/01/02 11:29:33;;;;;;;7.13;2.05;;;;;;;13.91;79.45;100003.59;12171057;19;20063;-83
2023/01/02 11:33:37;;;;;;;8.55;2.67;;;;;;;13.97;81.19;100010.84;12200946;19;20365;-81
2023/01/02 11:37:51;;;;;;;6.15;2.00;;;;;;;13.92;80.33;100010.81;12198160;19;20010;-81
2023/01/02 11:46:32;;;;;;;11.65;2.50;;;;;;;13.97;80.56;100026.63;12197048;19;20023;-81
2023/01/02 11:50:36;;;;;;;6.00;1.88;;;;;;;13.85;82.95;100033.19;12177794;19;20062;-82
2023/01/02 11:54:43;;;;;;;8.50;2.42;;;;;;;13.70;85.70;100029.47;12202979;19;20034;-81
2023/01/02 11:58:59;;;;;;;7.95;2.42;;;;;;;13.47;89.88;100025.13;12209315;19;20034;-82
2023/01/02 12:03:08;;;;;;;7.90;2.63;;;;;;;13.25;94.26;100014.13;12183148;19;20007;-83
2023/01/02 12:07:41;;;;;;;7.07;2.70;;;;;;;13.02;96.86;100032.72;12202022;19;20025;-83
2023/01/02 12:12:07;;;;;;;9.85;2.55;;;;;;;12.84;100.00;100027.53;12181850;19;20010;-81
2023/01/02 12:21:33;;;;;;;8.68;2.50;;;;;;;12.74;100.00;100023.56;12206284;19;20040;-82
2023/01/02 12:26:01;;;;;;;6.78;2.20;;;;;;;12.81;100.00;100039.13;12153126;19;20023;-83
2023/01/02 12:30:14;;;;;;;7.90;2.53;;;;;;;12.99;99.00;100042.34;12199516;19;20002;-82
2023/01/02 12:34:50;;;;;;;11.18;2.70;;;;;;;13.10;99.66;100042.47;12200810;19;20030;-80
2023/01/02 12:39:23;;;;;;;6.40;2.42;;;;;;;13.15;98.36;100039.78;12179813;19;20078;-81
2023/01/02 12:43:43;;;;;;;9.60;2.75;;;;;;;13.19;98.56;100038.16;12202563;19;20013;-82
2023/01/02 12:47:55;;;;;;;12.32;2.75;;;;;;;13.20;100.00;100039.81;12188487;19;20010;-85
2023/01/02 12:52:22;;;;;;;11.68;2.78;;;;;;;13.10;100.00;100048.00;12212434;19;20338;-80
2023/01/02 12:56:37;;;;;;;9.52;3.03;;;;;;;12.91;100.00;100039.22;12243661;19;20023;-79
2023/01/02 13:00:58;;;;;;;10.35;3.38;;;;;;;12.76;100.00;100035.22;12253791;19;20011;-80
2023/01/02 13:05:08;;;;;;;9.60;2.95;;;;;;;12.67;100.00;100036.75;12195353;19;20014;-84
2023/01/02 13:09:17;;;;;;;6.78;2.40;;;;;;;12.59;100.00;100044.66;12217307;19;20014;-81
2023/01/02 13:13:29;;;;;;;9.18;2.88;;;;;;;12.57;100.00;100036.63;12214993;19;20006;-83
2023/01/02 13:17:56;;;;;;;9.30;2.80;;;;;;;12.62;100.00;100041.41;12194089;19;20003;-83
2023/01/02 13:22:19;;;;;;;7.43;2.57;;;;;;;12.54;100.00;100046.25;12211360;19;20015;-83
2023/01/02 13:26:27;;;;;;;8.32;2.25;;;;;;;12.65;100.00;100051.94;12191257;19;20031;-83
2023/01/02 13:30:33;;;;;;;8.35;2.50;;;;;;;12.68;100.00;100041.19;12212385;19;20508;-83
2023/01/02 13:34:45;;;;;;;8.35;2.90;;;;;;;12.81;100.00;100044.66;12214445;19;20023;-83
2023/01/02 13:38:57;;;;;;;6.32;2.70;;;;;;;12.85;100.00;100040.25;12195078;19;20026;-84
2023/01/02 13:43:04;;;;;;;12.40;2.60;;;;;;;12.87;100.00;100049.13;12213403;19;20022;-83
2023/01/02 13:47:15;;;;;;;7.55;2.88;;;;;;;12.91;100.00;100045.63;12194587;19;20006;-83
2023/01/02 13:51:31;;;;;;;9.85;3.83;;;;;;;12.94;100.00;100041.50;12214764;19;20081;-82
2023/01/02 13:56:00;;;;;;;8.50;2.58;;;;;;;13.00;100.00;100035.75;12212800;19;20067;-81
2023/01/02 14:00:14;;;;;;;5.47;2.90;;;;;;;12.99;100.00;100041.53;12188436;19;20006;-83
2023/01/02 14:04:30;;;;;;;8.15;2.55;;;;;;;13.05;100.00;100046.00;12210914;19;20475;-82
2023/01/02 14:08:35;;;;;;;9.52;2.95;;;;;;;13.05;100.00;100056.25;12194158;19;20023;-80
2023/01/02 14:12:44;;;;;;;9.45;2.47;;;;;;;13.00;100.00;100057.88;12250377;19;20010;-82
2023/01/02 14:17:07;;;;;;;9.98;2.58;;;;;;;13.07;100.00;100065.97;12205900;19;20011;-80
2023/01/02 14:21:11;;;;;;;8.00;2.40;;;;;;;13.06;100.00;100072.59;12186763;19;20752;-81
2023/01/02 14:25:14;;;;;;;5.78;2.47;;;;;;;13.11;100.00;100066.28;12201746;19;19999;-81
2023/01/02 14:29:16;;;;;;;6.20;2.97;;;;;;;13.18;100.00;100059.44;12200627;19;20007;-80
2023/01/02 14:33:28;;;;;;;9.02;2.70;;;;;;;13.18;100.00;100076.06;12178501;19;20028;-81
2023/01/02 14:38:14;;;;;;;11.25;2.72;;;;;;;13.21;100.00;100058.94;12204378;19;20003;-81
2023/01/02 14:46:51;;;;;;;8.52;3.13;;;;;;;13.25;100.00;100070.34;12202631;19;20500;-80
2023/01/02 14:50:55;;;;;;;4.82;2.58;;;;;;;13.29;100.00;100073.41;12180218;19;20011;-81
2023/01/02 14:55:17;;;;;;;8.63;3.28;;;;;;;13.31;100.00;100079.53;12201883;19;20025;-80
2023/01/02 14:59:32;;;;;;;9.57;2.40;;;;;;;13.35;100.00;100095.34;12209111;19;20009;-79
2023/01/02 15:04:04;;;;;;;11.07;2.85;;;;;;;13.38;100.00;100091.22;12241474;19;20002;-79
2023/01/02 15:08:12;;;;;;;9.30;3.30;;;;;;;13.35;100.00;100100.03;12225933;19;20030;-80
2023/01/02 15:16:57;;;;;;;9.15;3.10;;;;;;;13.25;100.00;100111.84;12212823;19;19998;-83
2023/01/02 15:21:07;;;;;;;8.18;2.80;;;;;;;13.18;100.00;100112.03;12185793;19;20006;-83
2023/01/02 15:25:13;;;;;;;7.20;3.50;;;;;;;13.07;100.00;100126.00;12209481;19;20003;-83
2023/01/02 15:29:27;;;;;;;8.85;2.70;;;;;;;12.91;100.00;100127.72;12209089;19;20011;-83
2023/01/02 15:33:30;;;;;;;9.77;3.67;;;;;;;12.85;100.00;100135.16;12196794;19;20006;-83
2023/01/02 15:37:32;;;;;;;10.82;3.15;;;;;;;12.74;100.00;100139.69;12212744;19;20023;-83
2023/01/02 15:41:41;;;;;;;18.40;3.53;;;;;;;12.72;100.00;100144.63;12204829;19;20083;-82
2023/01/02 15:45:47;;;;;;;11.25;3.38;;;;;;;12.72;100.00;100165.94;12185499;19;20066;-80
2023/01/02 15:49:49;;;;;;;6.32;3.03;;;;;;;12.62;100.00;100198.97;12200278;19;20083;-80
2023/01/02 15:53:53;;;;;;;3.73;1.10;;;;;;;12.12;100.00;100233.81;12184877;19;20007;-81
2023/01/02 15:58:15;;;;;;;4.65;1.10;;;;;;;11.40;100.00;100246.25;12204993;19;20003;-83
2023/01/02 16:02:45;;;;;;;1.88;0.73;;;;;;;11.00;100.00;100257.25;12203794;19;20468;-82
2023/01/02 16:06:47;;;;;;;1.75;0.50;;;;;;;10.71;100.00;100262.66;12184044;19;20082;-82
2023/01/02 16:10:49;;;;;;;0.75;0.45;;;;;;;10.57;100.00;100268.66;12207697;19;20452;-82
2023/01/02 16:14:55;;;;;;;1.40;0.65;;;;;;;10.44;100.00;100276.06;12182837;19;20071;-83
2023/01/02 16:18:59;;;;;;;2.95;1.08;;;;;;;10.44;100.00;100281.59;12203561;19;20006;-84
2023/01/02 16:23:04;;;;;;;2.90;0.70;;;;;;;10.44;100.00;100291.75;12206364;19;20715;-83
2023/01/02 16:27:12;;;;;;;2.35;1.08;;;;;;;10.45;100.00;100301.69;12181266;19;20010;-85
2023/01/02 16:31:19;;;;;;;1.67;0.68;;;;;;;10.43;100.00;100299.16;12200725;19;20017;-83
2023/01/02 16:35:28;;;;;;;4.55;1.10;;;;;;;10.44;100.00;100300.00;12195664;19;20086;-82
2023/01/02 16:39:43;;;;;;;2.65;1.13;;;;;;;10.47;100.00;100275.59;12179670;19;20547;-83
2023/01/02 16:43:45;;;;;;;2.60;1.30;;;;;;;10.54;100.00;100266.38;12212297;19;20020;-83
2023/01/02 16:47:47;;;;;;;3.60;1.55;;;;;;;10.58;100.00;100251.03;12190778;19;20010;-81
2023/01/02 16:51:52;;;;;;;3.67;1.27;;;;;;;10.60;100.00;100246.13;12213516;19;20011;-82
2023/01/02 16:55:57;;;;;;;5.65;1.40;;;;;;;10.59;100.00;100256.31;12217184;19;20011;-82
2023/01/02 16:59:58;;;;;;;2.80;1.10;;;;;;;10.55;100.00;100284.56;12198079;19;20460;-83
2023/01/02 17:04:01;;;;;;;6.10;3.00;;;;;;;10.48;100.00;100313.09;12210887;19;20010;-82
2023/01/02 17:08:03;;;;;;;2.35;1.55;;;;;;;10.44;100.00;100314.66;12211684;19;20003;-82
2023/01/02 17:12:05;;;;;;;5.70;1.37;;;;;;;10.39;100.00;100327.44;12186834;19;20082;-82
2023/01/02 17:16:08;;;;;;;4.22;1.67;;;;;;;10.39;100.00;100333.78;12215586;19;20011;-82
2023/01/02 17:20:11;;;;;;;6.88;1.30;;;;;;;10.35;100.00;100348.25;12208901;19;20354;-81
2023/01/02 17:24:13;;;;;;;2.80;1.40;;;;;;;10.29;100.00;100369.31;12188208;19;20010;-82
2023/01/02 17:28:16;;;;;;;3.58;1.38;;;;;;;10.26;100.00;100365.16;12207416;19;20002;-81
2023/01/02 17:32:18;;;;;;;4.50;1.83;;;;;;;10.27;100.00;100385.25;12213083;19;20002;-81
2023/01/02 17:36:21;;;;;;;5.80;1.95;;;;;;;10.26;100.00;100394.53;12187405;19;20026;-83
2023/01/02 17:40:22;;;;;;;6.97;2.25;;;;;;;10.27;100.00;100419.16;12207856;19;20428;-83
2023/01/02 17:44:25;;;;;;;8.95;3.72;;;;;;;10.29;100.00;100429.91;12210441;19;20480;-82
2023/01/02 17:48:26;;;;;;;7.45;2.97;;;;;;;10.32;100.00;100445.16;12195302;19;20030;-82
2023/01/02 17:52:28;;;;;;;5.43;2.35;;;;;;;10.35;100.00;100444.69;12207460;19;20353;-82
2023/01/02 17:56:30;;;;;;;3.65;1.83;;;;;;;10.31;100.00;100452.56;12213522;19;20806;-83
2023/01/02 18:00:32;;;;;;;5.13;1.70;;;;;;;10.32;100.00;100443.25;12196131;19;20023;-81
2023/01/02 18:04:34;;;;;;;1.70;1.08;;;;;;;10.35;100.00;100442.78;12213989;19;20007;-82
2023/01/02 18:08:36;;;;;;;5.72;2.05;;;;;;;10.32;100.00;100454.28;12211594;19;20212;-83
2023/01/02 18:12:38;;;;;;;3.67;1.30;;;;;;;10.23;100.00;100472.13;12191722;19;20515;-83
2023/01/02 18:16:41;;;;;;;3.10;1.73;;;;;;;10.15;100.00;100476.06;12214729;19;20070;-82
2023/01/02 18:20:45;;;;;;;3.53;1.40;;;;;;;10.13;100.00;100478.19;12214904;19;20728;-82
2023/01/02 18:24:48;;;;;;;3.67;1.55;;;;;;;10.12;100.00;100490.28;12192314;19;20036;-83
2023/01/02 18:28:55;;;;;;;4.80;1.85;;;;;;;10.15;100.00;100491.75;12211611;19;20431;-83
2023/01/02 18:33:12;;;;;;;4.70;1.52;;;;;;;10.13;100.00;100513.16;12213078;19;21332;-82
2023/01/02 18:37:20;;;;;;;3.97;1.48;;;;;;;10.10;100.00;100516.38;12195812;19;20030;-83
2023/01/02 18:41:25;;;;;;;2.22;1.38;;;;;;;10.10;100.00;100519.13;12210817;19;20006;-82
2023/01/02 18:45:29;;;;;;;2.75;1.42;;;;;;;10.08;100.00;100526.75;12216361;19;20015;-82
2023/01/02 18:49:40;;;;;;;2.67;1.52;;;;;;;9.96;100.00;100532.19;12193192;19;20095;-82
2023/01/02 18:53:52;;;;;;;2.80;1.30;;;;;;;9.85;100.00;100530.22;12215474;19;20011;-82
2023/01/02 18:57:58;;;;;;;5.33;1.80;;;;;;;9.79;100.00;100553.97;12192870;19;19999;-82
2023/01/02 19:02:01;;;;;;;2.08;1.40;;;;;;;9.71;100.00;100551.50;12210929;19;20276;-82
2023/01/02 19:06:16;;;;;;;2.00;0.98;;;;;;;9.61;100.00;100552.03;12217705;19;20371;-82
2023/01/02 19:10:27;;;;;;;2.45;1.42;;;;;;;9.55;100.00;100548.25;12192621;19;20086;-82
2023/01/02 19:14:39;;;;;;;3.30;1.48;;;;;;;9.46;100.00;100544.13;12219410;19;20611;-82
2023/01/02 19:18:46;;;;;;;3.33;1.80;;;;;;;9.39;100.00;100547.97;12213285;19;20098;-82
2023/01/02 19:22:48;;;;;;;3.10;1.67;;;;;;;9.34;100.00;100567.91;12196039;19;20030;-82